Time;durP1;ratioP1;P1;durP2;ratioP2;P2;SDS_P1;SDS_P2;PMS_P1;PMS_P2;Temp;Humidity;BMP_temperature;BMP_pressure;BME280_temperature;BME280_humidity;BME280_pressure;Samples;Min_cycle;Max_cycle;Signal;HPM_P1;HPM_P2
2022/09/22 00:01:11;;;;;;;2.60;1.40;;;;;;;;;;5008919;28;20196;-67
2022/09/22 00:03:41;;;;;;;2.23;1.40;;;;;;;;;;5012227;28;20196;-66
2022/09/22 00:06:12;;;;;;;1.20;1.10;;;;;;;;;;5013054;28;20196;-67
2022/09/22 00:08:59;;;;;;;1.90;1.47;;;;;;;;;;5015834;28;20202;-67
2022/09/22 00:11:30;;;;;;;2.03;1.30;;;;;;;;;;5032558;28;20648;-67
2022/09/22 00:13:58;;;;;;;3.00;1.47;;;;;;;;;;5031931;28;20192;-67
2022/09/22 00:16:29;;;;;;;2.70;1.50;;;;;;;;;;5032532;28;20270;-67
2022/09/22 00:18:56;;;;;;;3.67;1.30;;;;;;;;;;5032065;28;20191;-67
2022/09/22 00:21:23;;;;;;;4.40;1.50;;;;;;;;;;5032072;28;20191;-67
2022/09/22 00:23:51;;;;;;;2.80;1.43;;;;;;;;;;5029490;28;20670;-67
2022/09/22 00:26:18;;;;;;;5.13;1.50;;;;;;;;;;5012466;28;20200;-66
2022/09/22 00:29:02;;;;;;;2.73;1.43;;;;;;;;;;5016707;28;20195;-67
2022/09/22 00:31:29;;;;;;;2.73;1.30;;;;;;;;;;5031951;28;20984;-67
2022/09/22 00:33:56;;;;;;;3.40;1.30;;;;;;;;;;5031734;28;20610;-67
2022/09/22 00:36:24;;;;;;;2.77;1.40;;;;;;;;;;5031884;28;20184;-66
2022/09/22 00:38:51;;;;;;;2.07;1.20;;;;;;;;;;5031346;28;20200;-67
2022/09/22 00:41:19;;;;;;;1.60;1.13;;;;;;;;;;5014168;28;20728;-67
2022/09/22 00:43:47;;;;;;;2.47;1.23;;;;;;;;;;5031784;28;20720;-67
2022/09/22 00:46:18;;;;;;;3.13;1.20;;;;;;;;;;5031690;28;20188;-67
2022/09/22 00:49:02;;;;;;;1.50;1.17;;;;;;;;;;5031100;28;20246;-67
2022/09/22 00:51:30;;;;;;;2.17;1.10;;;;;;;;;;5031829;28;20222;-67
2022/09/22 00:53:57;;;;;;;1.83;1.10;;;;;;;;;;5031916;28;20195;-66
2022/09/22 00:56:26;;;;;;;1.70;1.30;;;;;;;;;;5012846;28;20218;-66
2022/09/22 00:59:02;;;;;;;4.23;1.37;;;;;;;;;;5030021;28;20659;-67
2022/09/22 01:01:29;;;;;;;2.00;1.00;;;;;;;;;;5030446;28;20187;-67
2022/09/22 01:03:56;;;;;;;1.93;1.20;;;;;;;;;;5013398;28;20190;-67
2022/09/22 01:06:25;;;;;;;1.50;1.10;;;;;;;;;;5030174;28;20267;-67
2022/09/22 01:08:52;;;;;;;1.73;1.27;;;;;;;;;;5029832;28;20215;-67
2022/09/22 01:11:19;;;;;;;1.43;1.20;;;;;;;;;;5013405;28;20614;-67
2022/09/22 01:13:52;;;;;;;1.87;1.43;;;;;;;;;;5029031;28;20218;-67
2022/09/22 01:16:38;;;;;;;1.80;1.30;;;;;;;;;;5031360;28;20184;-66
2022/09/22 01:19:10;;;;;;;2.33;1.20;;;;;;;;;;5030832;28;20222;-66
2022/09/22 01:21:50;;;;;;;1.97;1.27;;;;;;;;;;5013528;28;20187;-66
2022/09/22 01:24:35;;;;;;;2.67;1.07;;;;;;;;;;5030574;28;20222;-66
2022/09/22 01:27:05;;;;;;;2.50;1.20;;;;;;;;;;5031292;28;20199;-67
2022/09/22 01:29:36;;;;;;;2.20;1.00;;;;;;;;;;5030746;28;20229;-66
2022/09/22 01:32:12;;;;;;;1.67;1.07;;;;;;;;;;5028364;28;20219;-67
2022/09/22 01:34:54;;;;;;;2.53;1.00;;;;;;;;;;5030619;28;20657;-66
2022/09/22 01:37:33;;;;;;;1.60;0.83;;;;;;;;;;5030459;28;20210;-66
2022/09/22 01:40:02;;;;;;;1.37;0.90;;;;;;;;;;5030670;28;20203;-67
2022/09/22 01:42:32;;;;;;;1.70;0.93;;;;;;;;;;4996805;28;20628;-67
2022/09/22 01:45:04;;;;;;;2.90;0.90;;;;;;;;;;5031012;28;20582;-67
2022/09/22 01:47:33;;;;;;;2.00;1.00;;;;;;;;;;5030785;28;20196;-66
2022/09/22 01:50:01;;;;;;;1.97;0.90;;;;;;;;;;5012709;28;20211;-67
2022/09/22 01:52:30;;;;;;;2.20;1.00;;;;;;;;;;5012833;28;20196;-67
2022/09/22 01:55:05;;;;;;;2.27;1.10;;;;;;;;;;5011803;28;20195;-67
2022/09/22 01:57:43;;;;;;;2.60;0.90;;;;;;;;;;5013133;28;20203;-67
2022/09/22 02:00:10;;;;;;;2.80;0.90;;;;;;;;;;5013133;28;20193;-67
2022/09/22 02:02:49;;;;;;;1.53;1.10;;;;;;;;;;5030550;28;20203;-67
2022/09/22 02:05:48;;;;;;;1.47;1.10;;;;;;;;;;5029731;28;20186;-67
2022/09/22 02:08:41;;;;;;;1.73;1.10;;;;;;;;;;5030182;28;20211;-67
2022/09/22 02:11:25;;;;;;;2.53;0.93;;;;;;;;;;5009990;28;20191;-67
2022/09/22 02:13:52;;;;;;;3.57;1.10;;;;;;;;;;5029850;28;20187;-67
2022/09/22 02:16:19;;;;;;;1.20;0.90;;;;;;;;;;5029247;28;20261;-67
2022/09/22 02:18:47;;;;;;;2.17;1.00;;;;;;;;;;5029965;28;20199;-67
2022/09/22 02:21:19;;;;;;;2.37;1.03;;;;;;;;;;5013392;28;20912;-67
2022/09/22 02:23:45;;;;;;;2.20;1.10;;;;;;;;;;5030277;28;20575;-67
2022/09/22 02:26:14;;;;;;;2.27;0.90;;;;;;;;;;5029379;28;20183;-67
2022/09/22 02:28:40;;;;;;;2.17;1.00;;;;;;;;;;5029161;28;21546;-67
2022/09/22 02:31:08;;;;;;;2.37;1.00;;;;;;;;;;5012158;28;20191;-66
2022/09/22 02:33:50;;;;;;;2.47;1.20;;;;;;;;;;5026347;28;20543;-67
2022/09/22 02:36:35;;;;;;;1.53;0.90;;;;;;;;;;5012270;28;20551;-67
2022/09/22 02:39:09;;;;;;;4.40;1.23;;;;;;;;;;5029997;28;20242;-67
2022/09/22 02:42:02;;;;;;;3.47;1.00;;;;;;;;;;5011983;28;20202;-67
2022/09/22 02:44:39;;;;;;;1.90;0.90;;;;;;;;;;4999450;28;20230;-67
2022/09/22 02:47:11;;;;;;;3.37;1.10;;;;;;;;;;5029195;28;20191;-67
2022/09/22 02:49:38;;;;;;;1.83;0.90;;;;;;;;;;5010429;28;20232;-68
2022/09/22 02:52:09;;;;;;;2.07;0.80;;;;;;;;;;5012056;28;20534;-67
2022/09/22 02:54:38;;;;;;;1.70;0.80;;;;;;;;;;4995233;28;20692;-67
2022/09/22 02:57:05;;;;;;;3.50;1.03;;;;;;;;;;5029660;28;20176;-67
2022/09/22 02:59:32;;;;;;;2.37;1.07;;;;;;;;;;5029237;28;20202;-68
2022/09/22 03:01:58;;;;;;;1.47;0.90;;;;;;;;;;5028627;28;20196;-67
2022/09/22 03:04:25;;;;;;;1.03;0.90;;;;;;;;;;5020238;28;20202;-67
2022/09/22 03:06:52;;;;;;;1.43;1.03;;;;;;;;;;5009572;28;20925;-67
2022/09/22 03:09:18;;;;;;;1.60;0.97;;;;;;;;;;5009677;28;20220;-67
2022/09/22 03:11:45;;;;;;;1.90;1.00;;;;;;;;;;5022091;28;20188;-67
2022/09/22 03:14:12;;;;;;;1.73;0.87;;;;;;;;;;5029138;28;21024;-68
2022/09/22 03:16:39;;;;;;;1.60;0.97;;;;;;;;;;5028645;28;20199;-67
2022/09/22 03:19:05;;;;;;;2.20;1.10;;;;;;;;;;5029183;28;20199;-67
2022/09/22 03:21:32;;;;;;;1.43;0.90;;;;;;;;;;5023996;28;20191;-67
2022/09/22 03:23:59;;;;;;;2.10;1.00;;;;;;;;;;5028989;28;20195;-67
2022/09/22 03:26:26;;;;;;;2.03;1.00;;;;;;;;;;5029072;28;20194;-67
2022/09/22 03:28:53;;;;;;;1.20;1.10;;;;;;;;;;5021262;28;20225;-70
2022/09/22 03:31:20;;;;;;;1.70;0.90;;;;;;;;;;5018837;28;20231;-68
2022/09/22 03:33:46;;;;;;;1.50;1.20;;;;;;;;;;5019932;28;20187;-68
2022/09/22 03:36:18;;;;;;;1.77;1.07;;;;;;;;;;5004251;28;20198;-68
2022/09/22 03:38:45;;;;;;;2.63;1.00;;;;;;;;;;5024084;28;20199;-69
2022/09/22 03:41:12;;;;;;;2.00;1.00;;;;;;;;;;5007509;28;20231;-67
2022/09/22 03:43:39;;;;;;;1.20;0.80;;;;;;;;;;5024684;28;20206;-67
2022/09/22 03:46:06;;;;;;;2.47;0.90;;;;;;;;;;5005908;28;20337;-67
2022/09/22 03:48:33;;;;;;;2.27;1.20;;;;;;;;;;5025766;28;20195;-67
2022/09/22 03:51:00;;;;;;;1.97;1.00;;;;;;;;;;5025303;28;20219;-67
2022/09/22 03:53:27;;;;;;;2.07;1.10;;;;;;;;;;5023881;28;20187;-68
2022/09/22 03:56:03;;;;;;;3.47;0.90;;;;;;;;;;5024459;28;20281;-68
2022/09/22 03:58:30;;;;;;;3.03;1.10;;;;;;;;;;5024061;28;20528;-68
2022/09/22 04:00:57;;;;;;;3.07;0.97;;;;;;;;;;5025656;28;20199;-68
2022/09/22 04:03:24;;;;;;;1.30;1.00;;;;;;;;;;5026363;28;20551;-69
2022/09/22 04:05:50;;;;;;;1.97;0.97;;;;;;;;;;5026945;28;20805;-69
2022/09/22 04:08:17;;;;;;;1.70;1.20;;;;;;;;;;5025077;28;20183;-69
2022/09/22 04:10:44;;;;;;;3.43;1.50;;;;;;;;;;5024782;28;20221;-68
2022/09/22 04:13:12;;;;;;;2.53;1.20;;;;;;;;;;5026177;28;20210;-68
2022/09/22 04:15:39;;;;;;;1.70;1.20;;;;;;;;;;5023903;28;20250;-69
2022/09/22 04:18:05;;;;;;;3.93;1.50;;;;;;;;;;5025713;28;20408;-69
2022/09/22 04:20:33;;;;;;;2.17;1.70;;;;;;;;;;5024160;28;20245;-65
2022/09/22 04:22:59;;;;;;;1.90;1.30;;;;;;;;;;5024555;28;20194;-66
2022/09/22 04:25:26;;;;;;;2.50;1.30;;;;;;;;;;5025404;28;20658;-68
2022/09/22 04:27:53;;;;;;;2.73;1.37;;;;;;;;;;5007233;28;20204;-66
2022/09/22 04:30:20;;;;;;;2.10;1.27;;;;;;;;;;5022881;28;20207;-67
2022/09/22 04:32:47;;;;;;;1.80;1.50;;;;;;;;;;5023084;28;20238;-68
2022/09/22 04:35:13;;;;;;;1.57;1.40;;;;;;;;;;5025465;28;20199;-69
2022/09/22 04:37:41;;;;;;;1.97;1.50;;;;;;;;;;5025093;28;20285;-68
2022/09/22 04:40:10;;;;;;;2.97;2.00;;;;;;;;;;5024652;28;21013;-68
2022/09/22 04:42:38;;;;;;;5.67;2.00;;;;;;;;;;5024320;28;20671;-67
2022/09/22 04:45:05;;;;;;;1.97;1.50;;;;;;;;;;5023722;28;20202;-68
2022/09/22 04:47:32;;;;;;;3.63;1.47;;;;;;;;;;5024761;28;20258;-67
2022/09/22 04:49:59;;;;;;;2.30;1.50;;;;;;;;;;5024330;28;20212;-70
2022/09/22 04:52:25;;;;;;;3.60;1.50;;;;;;;;;;5025154;28;20667;-70
2022/09/22 04:54:52;;;;;;;2.37;1.23;;;;;;;;;;5007184;28;20195;-70
2022/09/22 04:57:19;;;;;;;2.30;1.40;;;;;;;;;;5025594;28;20206;-68
2022/09/22 04:59:46;;;;;;;3.80;1.60;;;;;;;;;;5026552;28;20189;-66
2022/09/22 05:02:12;;;;;;;3.00;1.70;;;;;;;;;;5025020;28;20278;-66
2022/09/22 05:04:39;;;;;;;2.73;1.40;;;;;;;;;;5022291;28;20685;-68
2022/09/22 05:07:06;;;;;;;1.43;1.33;;;;;;;;;;5029143;28;20196;-69
2022/09/22 05:09:33;;;;;;;2.97;1.40;;;;;;;;;;5016948;28;20206;-69
2022/09/22 05:12:00;;;;;;;4.37;1.40;;;;;;;;;;5010248;28;20203;-69
2022/09/22 05:14:28;;;;;;;1.50;1.30;;;;;;;;;;5026581;28;20540;-69
2022/09/22 05:16:55;;;;;;;2.50;1.13;;;;;;;;;;5023384;28;20190;-69
2022/09/22 05:19:22;;;;;;;2.93;1.10;;;;;;;;;;5023246;28;20611;-69
2022/09/22 05:21:49;;;;;;;1.80;1.10;;;;;;;;;;5012155;28;20227;-69
2022/09/22 05:24:15;;;;;;;1.23;1.03;;;;;;;;;;5031250;28;20245;-69
2022/09/22 05:26:42;;;;;;;137.07;74.27;;;;;;;;;;5012913;28;20198;-69
2022/09/22 05:29:09;;;;;;;21.90;10.10;;;;;;;;;;5012512;28;20606;-69
2022/09/22 05:31:36;;;;;;;3.43;2.60;;;;;;;;;;5017904;28;20543;-67
2022/09/22 05:34:02;;;;;;;3.73;2.33;;;;;;;;;;5024750;28;20192;-67
2022/09/22 05:36:29;;;;;;;4.10;3.13;;;;;;;;;;5021605;28;20847;-68
2022/09/22 05:38:56;;;;;;;2.30;1.50;;;;;;;;;;5022592;28;20275;-69
2022/09/22 05:41:23;;;;;;;2.53;1.90;;;;;;;;;;5024113;28;20188;-68
2022/09/22 05:43:50;;;;;;;2.90;1.53;;;;;;;;;;5023733;28;20517;-67
2022/09/22 05:46:17;;;;;;;15.53;9.20;;;;;;;;;;5023996;28;20249;-67
2022/09/22 05:48:44;;;;;;;3.80;2.40;;;;;;;;;;5024166;28;20797;-68
2022/09/22 05:51:11;;;;;;;2.70;1.50;;;;;;;;;;5022508;28;20281;-69
2022/09/22 05:53:38;;;;;;;81.57;45.90;;;;;;;;;;5020103;28;20199;-68
2022/09/22 05:56:04;;;;;;;34.47;19.57;;;;;;;;;;5022442;28;20207;-68
2022/09/22 05:58:31;;;;;;;5.17;2.77;;;;;;;;;;5020201;28;20769;-68
2022/09/22 06:00:58;;;;;;;15.57;7.90;;;;;;;;;;5022733;28;20651;-68
2022/09/22 06:03:25;;;;;;;3.33;2.27;;;;;;;;;;5023239;28;20191;-66
2022/09/22 06:05:52;;;;;;;3.80;2.33;;;;;;;;;;5021432;28;20198;-67
2022/09/22 06:08:19;;;;;;;3.17;1.90;;;;;;;;;;5022060;28;20294;-67
2022/09/22 06:10:47;;;;;;;27.20;14.00;;;;;;;;;;5029826;28;20230;-67
2022/09/22 06:13:14;;;;;;;27.40;11.57;;;;;;;;;;5023240;28;20259;-68
2022/09/22 06:15:46;;;;;;;21.80;9.37;;;;;;;;;;5030203;28;20210;-65
2022/09/22 06:18:13;;;;;;;28.80;14.30;;;;;;;;;;5028995;28;20214;-67
2022/09/22 06:20:41;;;;;;;135.23;60.50;;;;;;;;;;5030497;28;20210;-67
2022/09/22 06:23:08;;;;;;;2.30;1.90;;;;;;;;;;5028238;28;20199;-66
2022/09/22 06:25:34;;;;;;;21.07;9.87;;;;;;;;;;5045079;28;20543;-67
2022/09/22 06:28:04;;;;;;;12.83;6.63;;;;;;;;;;5034894;28;20670;-67
2022/09/22 06:30:31;;;;;;;16.13;8.57;;;;;;;;;;5029357;28;20703;-67
2022/09/22 06:32:58;;;;;;;2.30;1.60;;;;;;;;;;5030172;28;20716;-67
2022/09/22 06:35:25;;;;;;;2.83;1.50;;;;;;;;;;5028833;28;20187;-67
2022/09/22 06:37:55;;;;;;;1.00;0.90;;;;;;;;;;5028828;28;20200;-67
2022/09/22 06:40:23;;;;;;;3.07;2.00;;;;;;;;;;5028902;28;20183;-67
2022/09/22 06:42:54;;;;;;;2.00;1.00;;;;;;;;;;5028104;28;20222;-67
2022/09/22 06:45:22;;;;;;;1.67;0.83;;;;;;;;;;5029080;28;20271;-67
2022/09/22 06:47:49;;;;;;;0.87;0.77;;;;;;;;;;5030091;28;20191;-67
2022/09/22 06:50:16;;;;;;;2.97;1.10;;;;;;;;;;5026942;28;20269;-67
2022/09/22 06:52:43;;;;;;;12.37;6.57;;;;;;;;;;5028279;28;20578;-67
2022/09/22 06:55:18;;;;;;;12.77;6.83;;;;;;;;;;5025406;28;20183;-67
2022/09/22 06:57:45;;;;;;;1.77;0.90;;;;;;;;;;5028785;28;20189;-67
2022/09/22 07:00:13;;;;;;;1.03;0.87;;;;;;;;;;5029492;28;20190;-66
2022/09/22 07:02:41;;;;;;;1.93;0.90;;;;;;;;;;5030478;28;20314;-67
2022/09/22 07:05:07;;;;;;;2.00;1.20;;;;;;;;;;5028655;28;20187;-67
2022/09/22 07:07:34;;;;;;;5.50;2.70;;;;;;;;;;5036369;28;20195;-67
2022/09/22 07:10:01;;;;;;;5.33;2.83;;;;;;;;;;5029373;28;20214;-66
2022/09/22 07:12:29;;;;;;;5.83;3.30;;;;;;;;;;5025827;28;20192;-67
2022/09/22 07:14:56;;;;;;;3.83;1.57;;;;;;;;;;5029882;28;20292;-67
2022/09/22 07:17:30;;;;;;;2.20;1.20;;;;;;;;;;5010543;28;20282;-67
2022/09/22 07:19:57;;;;;;;2.60;2.00;;;;;;;;;;5020048;28;20315;-67
2022/09/22 07:22:25;;;;;;;7.97;6.83;;;;;;;;;;5021186;28;20198;-67
2022/09/22 07:24:52;;;;;;;2.20;1.10;;;;;;;;;;5019895;28;20274;-67
2022/09/22 07:27:25;;;;;;;2.00;1.23;;;;;;;;;;5023911;28;20198;-67
2022/09/22 07:29:53;;;;;;;1.63;1.00;;;;;;;;;;5028820;28;20219;-67
2022/09/22 07:32:20;;;;;;;1.77;1.00;;;;;;;;;;5027370;28;20622;-67
2022/09/22 07:34:48;;;;;;;6.33;4.57;;;;;;;;;;5010738;28;20867;-67
2022/09/22 07:37:14;;;;;;;1.67;0.90;;;;;;;;;;5009097;28;20211;-66
2022/09/22 07:39:44;;;;;;;0.87;0.87;;;;;;;;;;5026371;28;20571;-67
2022/09/22 07:42:11;;;;;;;1.90;1.30;;;;;;;;;;5027367;28;20188;-67
2022/09/22 07:50:09;;;;;;;4.13;2.30;;;;;;;;;;5021180;28;20214;-67
2022/09/22 07:52:36;;;;;;;3.13;2.40;;;;;;;;;;5016406;28;20558;-67
2022/09/22 07:55:03;;;;;;;2.07;1.70;;;;;;;;;;5027576;28;20562;-67
2022/09/22 07:57:31;;;;;;;2.17;1.30;;;;;;;;;;5028627;28;20247;-67
2022/09/22 07:59:58;;;;;;;2.07;1.33;;;;;;;;;;5027856;28;20257;-67
2022/09/22 08:02:27;;;;;;;1.03;0.70;;;;;;;;;;5011372;28;20202;-67
2022/09/22 08:04:58;;;;;;;0.97;0.60;;;;;;;;;;5028575;28;20250;-67
2022/09/22 08:07:25;;;;;;;2.27;0.60;;;;;;;;;;5026105;28;20204;-67
2022/09/22 08:09:52;;;;;;;2.50;0.80;;;;;;;;;;5028332;28;20562;-67
2022/09/22 08:12:19;;;;;;;2.60;0.80;;;;;;;;;;5027834;28;20290;-67
2022/09/22 08:14:46;;;;;;;0.97;0.63;;;;;;;;;;5027590;28;20203;-67
2022/09/22 08:17:13;;;;;;;1.43;0.40;;;;;;;;;;5022021;28;20187;-68
2022/09/22 08:19:40;;;;;;;0.70;0.50;;;;;;;;;;5020509;28;20192;-67
2022/09/22 08:22:08;;;;;;;2.10;1.00;;;;;;;;;;5026142;28;20254;-67
2022/09/22 08:24:36;;;;;;;2.40;1.70;;;;;;;;;;5040675;28;20196;-67
2022/09/22 08:27:02;;;;;;;1.60;0.60;;;;;;;;;;5031811;28;20245;-67
2022/09/22 08:29:30;;;;;;;1.23;0.50;;;;;;;;;;5031567;28;20570;-67
2022/09/22 08:31:57;;;;;;;1.33;0.60;;;;;;;;;;5027599;28;20262;-67
2022/09/22 08:34:23;;;;;;;1.40;0.70;;;;;;;;;;5030439;28;20184;-68
2022/09/22 08:37:09;;;;;;;1.97;0.90;;;;;;;;;;5029007;28;20245;-67
2022/09/22 08:39:36;;;;;;;1.00;0.60;;;;;;;;;;5043019;28;20187;-67
2022/09/22 08:42:21;;;;;;;1.87;0.77;;;;;;;;;;5031400;28;20651;-67
2022/09/22 08:44:53;;;;;;;2.83;1.27;;;;;;;;;;5030796;28;20282;-67
2022/09/22 08:53:08;;;;;;;0.80;0.50;;;;;;;;;;5036619;28;20192;-67
2022/09/22 08:55:35;;;;;;;0.70;0.53;;;;;;;;;;5035650;28;20831;-67
2022/09/22 08:58:02;;;;;;;1.43;0.43;;;;;;;;;;5037708;28;20218;-67
2022/09/22 09:00:53;;;;;;;0.73;0.50;;;;;;;;;;5031065;28;20270;-67
2022/09/22 09:03:32;;;;;;;0.60;0.60;;;;;;;;;;5030475;28;20188;-67
2022/09/22 09:06:12;;;;;;;0.90;0.63;;;;;;;;;;5030803;28;20195;-67
2022/09/22 09:08:43;;;;;;;1.77;0.60;;;;;;;;;;5038207;28;20191;-67
2022/09/22 09:11:29;;;;;;;0.80;0.70;;;;;;;;;;5013054;28;20203;-67
2022/09/22 09:14:00;;;;;;;2.10;0.60;;;;;;;;;;5030687;28;20214;-67
2022/09/22 09:16:32;;;;;;;2.00;0.80;;;;;;;;;;5030938;28;20187;-67
2022/09/22 09:19:03;;;;;;;0.70;0.53;;;;;;;;;;5009718;28;20227;-67
2022/09/22 09:21:33;;;;;;;0.90;0.57;;;;;;;;;;5030792;28;20179;-67
2022/09/22 09:24:02;;;;;;;1.07;0.70;;;;;;;;;;5030976;28;20192;-67
2022/09/22 09:26:51;;;;;;;1.60;0.60;;;;;;;;;;5040206;28;20202;-67
2022/09/22 09:29:20;;;;;;;2.23;0.77;;;;;;;;;;5019326;28;20187;-68
2022/09/22 09:31:48;;;;;;;0.87;0.47;;;;;;;;;;5033101;28;20251;-66
2022/09/22 09:34:19;;;;;;;1.80;1.00;;;;;;;;;;5041348;28;20195;-67
2022/09/22 09:36:47;;;;;;;0.63;0.60;;;;;;;;;;5028699;28;20222;-67
2022/09/22 09:39:14;;;;;;;1.60;0.60;;;;;;;;;;5029215;28;21007;-67
2022/09/22 09:41:42;;;;;;;3.57;0.90;;;;;;;;;;5031441;28;20614;-67
2022/09/22 09:44:26;;;;;;;0.63;0.60;;;;;;;;;;5030168;28;20692;-67
2022/09/22 09:47:13;;;;;;;1.00;0.50;;;;;;;;;;5014355;28;20859;-67
2022/09/22 09:49:40;;;;;;;1.93;0.50;;;;;;;;;;5028357;28;20218;-67
2022/09/22 09:52:08;;;;;;;1.40;0.70;;;;;;;;;;5027807;28;20223;-67
2022/09/22 09:54:36;;;;;;;1.53;0.87;;;;;;;;;;5043330;28;20187;-67
2022/09/22 09:57:04;;;;;;;1.13;0.70;;;;;;;;;;5019621;28;20291;-67
2022/09/22 10:02:19;;;;;;;2.10;0.70;;;;;;;;;;5041379;28;20222;-67
2022/09/22 10:05:01;;;;;;;1.43;0.80;;;;;;;;;;5027111;28;20654;-66
2022/09/22 10:07:43;;;;;;;1.37;0.70;;;;;;;;;;5016175;28;20188;-66
2022/09/22 10:10:28;;;;;;;1.40;0.80;;;;;;;;;;5022997;28;20698;-66
2022/09/22 10:13:04;;;;;;;1.30;0.80;;;;;;;;;;5024780;28;20191;-67
2022/09/22 10:15:32;;;;;;;1.30;0.80;;;;;;;;;;5024889;28;20226;-68
2022/09/22 10:17:59;;;;;;;3.33;0.90;;;;;;;;;;5012246;28;20223;-71
2022/09/22 10:20:28;;;;;;;1.47;0.77;;;;;;;;;;5021647;28;20235;-70
2022/09/22 10:22:55;;;;;;;1.10;0.90;;;;;;;;;;5004302;28;20207;-70
2022/09/22 10:25:23;;;;;;;3.77;1.33;;;;;;;;;;5020974;28;20187;-71
2022/09/22 10:28:08;;;;;;;2.80;1.70;;;;;;;;;;5021618;28;20309;-71
2022/09/22 10:30:37;;;;;;;2.03;1.43;;;;;;;;;;5020708;28;20211;-70
2022/09/22 10:33:05;;;;;;;0.90;0.60;;;;;;;;;;4985797;28;20229;-66
2022/09/22 10:35:32;;;;;;;1.27;0.67;;;;;;;;;;5004951;28;20343;-67
2022/09/22 10:38:00;;;;;;;1.10;0.67;;;;;;;;;;4986133;28;20675;-69
2022/09/22 10:40:27;;;;;;;2.53;0.70;;;;;;;;;;4980337;28;20279;-68
2022/09/22 10:42:56;;;;;;;1.00;0.80;;;;;;;;;;4986258;28;20568;-68
2022/09/22 10:45:32;;;;;;;1.73;0.80;;;;;;;;;;4986424;28;20196;-69
2022/09/22 10:48:05;;;;;;;0.93;0.80;;;;;;;;;;5004227;28;20196;-69
2022/09/22 10:50:50;;;;;;;1.23;0.63;;;;;;;;;;4981528;28;20281;-70
2022/09/22 10:53:36;;;;;;;1.10;0.77;;;;;;;;;;5001893;28;20288;-68
2022/09/22 10:56:09;;;;;;;1.67;1.10;;;;;;;;;;4986383;28;20196;-67
2022/09/22 10:58:47;;;;;;;0.60;0.60;;;;;;;;;;4985044;28;20235;-70
2022/09/22 11:01:20;;;;;;;2.27;1.40;;;;;;;;;;5004371;28;20184;-70
2022/09/22 11:03:56;;;;;;;1.10;0.70;;;;;;;;;;4986292;28;20216;-69
2022/09/22 11:12:21;;;;;;;2.30;2.00;;;;;;;;;;4986186;28;20205;-69
2022/09/22 11:14:48;;;;;;;3.00;1.90;;;;;;;;;;4995518;28;20630;-68
2022/09/22 11:17:30;;;;;;;1.30;1.20;;;;;;;;;;4985511;28;20285;-66
2022/09/22 11:19:57;;;;;;;3.30;1.20;;;;;;;;;;4979394;28;20794;-67
2022/09/22 11:22:24;;;;;;;1.27;1.00;;;;;;;;;;4980752;28;20633;-68
2022/09/22 11:24:55;;;;;;;1.87;0.87;;;;;;;;;;4988263;28;20362;-58
2022/09/22 11:27:25;;;;;;;1.73;1.10;;;;;;;;;;4998866;28;20203;-57
2022/09/22 11:29:55;;;;;;;1.50;1.00;;;;;;;;;;5004248;28;20208;-57
2022/09/22 11:32:25;;;;;;;2.90;1.00;;;;;;;;;;5014342;28;20623;-58
2022/09/22 11:35:11;;;;;;;3.40;1.10;;;;;;;;;;5016576;28;20230;-60
2022/09/22 11:37:57;;;;;;;2.33;0.97;;;;;;;;;;5025954;28;20241;-60
2022/09/22 11:40:40;;;;;;;2.80;2.40;;;;;;;;;;5021844;28;20273;-59
2022/09/22 11:43:13;;;;;;;3.03;2.20;;;;;;;;;;4999768;28;20200;-59
2022/09/22 11:45:55;;;;;;;2.70;1.30;;;;;;;;;;5022457;28;20196;-59
2022/09/22 11:48:44;;;;;;;1.63;1.20;;;;;;;;;;5024048;28;20203;-59
2022/09/22 11:51:21;;;;;;;1.33;1.00;;;;;;;;;;5021211;28;20209;-59
2022/09/22 11:54:06;;;;;;;0.90;0.70;;;;;;;;;;5016228;28;20296;-59
2022/09/22 11:56:37;;;;;;;1.30;0.80;;;;;;;;;;5027532;28;20307;-59
2022/09/22 11:59:23;;;;;;;1.37;0.80;;;;;;;;;;5027345;28;20668;-60
2022/09/22 12:01:50;;;;;;;1.40;0.73;;;;;;;;;;5025278;28;20605;-60
2022/09/22 12:04:36;;;;;;;1.77;0.90;;;;;;;;;;5037214;28;20195;-65
2022/09/22 12:07:05;;;;;;;1.33;0.70;;;;;;;;;;5010414;28;20206;-69
2022/09/22 12:09:34;;;;;;;1.60;1.10;;;;;;;;;;5022227;28;20198;-68
2022/09/22 12:12:03;;;;;;;1.03;0.90;;;;;;;;;;5005750;28;20218;-66
2022/09/22 12:14:30;;;;;;;1.80;1.17;;;;;;;;;;5007341;28;20204;-66
2022/09/22 12:16:57;;;;;;;3.67;1.60;;;;;;;;;;5021244;28;20219;-67
2022/09/22 12:19:34;;;;;;;5.10;3.17;;;;;;;;;;5012159;28;20231;-67
2022/09/22 12:22:04;;;;;;;5.60;2.83;;;;;;;;;;5020763;28;20190;-66
2022/09/22 12:24:33;;;;;;;3.07;1.70;;;;;;;;;;5024972;28;20281;-67
2022/09/22 12:27:10;;;;;;;1.87;1.43;;;;;;;;;;5023653;28;20199;-68
2022/09/22 12:29:37;;;;;;;2.20;1.20;;;;;;;;;;5022186;28;20689;-67
2022/09/22 12:32:04;;;;;;;2.33;1.70;;;;;;;;;;5022490;28;20792;-67
2022/09/22 12:34:40;;;;;;;1.43;1.20;;;;;;;;;;5021537;28;20203;-68
2022/09/22 12:37:08;;;;;;;2.30;1.43;;;;;;;;;;5004619;28;20199;-69
2022/09/22 12:39:39;;;;;;;4.90;4.30;;;;;;;;;;5005633;28;20207;-68
2022/09/22 12:42:07;;;;;;;20.20;11.23;;;;;;;;;;5022678;28;20191;-68
2022/09/22 12:44:35;;;;;;;3.37;2.67;;;;;;;;;;5007086;28;20608;-68
2022/09/22 12:47:06;;;;;;;3.73;2.07;;;;;;;;;;5023270;28;20662;-68
2022/09/22 12:49:33;;;;;;;2.37;1.60;;;;;;;;;;5022609;28;20230;-67
2022/09/22 12:51:59;;;;;;;2.40;1.63;;;;;;;;;;5023497;28;20728;-68
2022/09/22 12:54:27;;;;;;;1.73;1.10;;;;;;;;;;5024398;28;20206;-68
2022/09/22 12:56:58;;;;;;;1.53;1.10;;;;;;;;;;5022397;28;20282;-68
2022/09/22 12:59:37;;;;;;;2.67;1.40;;;;;;;;;;5022229;28;20861;-69
2022/09/22 13:02:10;;;;;;;4.80;1.40;;;;;;;;;;5022452;28;20191;-69
2022/09/22 13:04:37;;;;;;;2.23;0.80;;;;;;;;;;5024369;28;20191;-70
2022/09/22 13:07:04;;;;;;;2.63;1.10;;;;;;;;;;5024125;28;20198;-70
2022/09/22 13:09:31;;;;;;;2.40;1.17;;;;;;;;;;5021290;28;20198;-72
2022/09/22 13:12:10;;;;;;;2.47;0.90;;;;;;;;;;5023548;28;20598;-67
2022/09/22 13:14:56;;;;;;;1.67;1.03;;;;;;;;;;5023439;28;20188;-70
2022/09/22 13:17:32;;;;;;;0.93;0.70;;;;;;;;;;5021890;28;20218;-67
2022/09/22 13:20:01;;;;;;;0.67;0.50;;;;;;;;;;5021069;28;20212;-68
2022/09/22 13:22:27;;;;;;;1.30;0.60;;;;;;;;;;5023777;28;20187;-67
2022/09/22 13:24:56;;;;;;;1.70;0.50;;;;;;;;;;5024222;28;20192;-68
2022/09/22 13:27:22;;;;;;;1.03;0.57;;;;;;;;;;5027478;28;20207;-67
2022/09/22 13:29:58;;;;;;;0.53;0.53;;;;;;;;;;5029601;28;20188;-67
2022/09/22 13:32:27;;;;;;;2.90;0.63;;;;;;;;;;5015130;28;20944;-65
2022/09/22 13:34:54;;;;;;;1.77;0.60;;;;;;;;;;5027829;28;20710;-66
2022/09/22 13:37:21;;;;;;;2.67;0.40;;;;;;;;;;5028955;28;20203;-67
2022/09/22 13:39:49;;;;;;;0.67;0.40;;;;;;;;;;5031457;28;20194;-66
2022/09/22 13:42:21;;;;;;;0.50;0.40;;;;;;;;;;5030428;28;20659;-67
2022/09/22 13:44:59;;;;;;;2.60;0.60;;;;;;;;;;5033069;28;20275;-67
2022/09/22 13:47:26;;;;;;;1.57;0.60;;;;;;;;;;5025568;28;20939;-67
2022/09/22 13:49:54;;;;;;;1.80;0.63;;;;;;;;;;5036001;28;20196;-66
2022/09/22 13:52:23;;;;;;;2.50;0.60;;;;;;;;;;5005961;28;20214;-67
2022/09/22 13:54:51;;;;;;;1.17;0.60;;;;;;;;;;5028781;28;20268;-67
2022/09/22 13:57:22;;;;;;;1.20;0.70;;;;;;;;;;5029949;28;20586;-66
2022/09/22 13:59:49;;;;;;;1.00;0.60;;;;;;;;;;5030253;28;20207;-66
2022/09/22 14:02:18;;;;;;;1.67;0.60;;;;;;;;;;5029626;28;20601;-65
2022/09/22 14:04:49;;;;;;;1.77;0.80;;;;;;;;;;5029878;28;20188;-67
2022/09/22 14:07:16;;;;;;;0.97;0.70;;;;;;;;;;5025059;28;20187;-66
2022/09/22 14:09:43;;;;;;;1.97;0.60;;;;;;;;;;5017904;28;20195;-67
2022/09/22 14:12:10;;;;;;;1.10;0.70;;;;;;;;;;5037497;28;20230;-67
2022/09/22 14:14:38;;;;;;;0.80;0.60;;;;;;;;;;5024071;28;20266;-67
2022/09/22 14:17:22;;;;;;;6.00;0.80;;;;;;;;;;5025405;28;20250;-67
2022/09/22 14:20:03;;;;;;;0.63;0.60;;;;;;;;;;5022479;28;20227;-68
2022/09/22 14:22:30;;;;;;;3.67;0.73;;;;;;;;;;5034847;28;20191;-67
2022/09/22 14:24:58;;;;;;;1.80;0.90;;;;;;;;;;5015074;28;20191;-68
2022/09/22 14:27:26;;;;;;;2.10;0.87;;;;;;;;;;5029428;28;20258;-68
2022/09/22 14:29:53;;;;;;;2.30;0.70;;;;;;;;;;5028994;28;20888;-67
2022/09/22 14:32:25;;;;;;;0.67;0.50;;;;;;;;;;5018717;28;20263;-67
2022/09/22 14:34:57;;;;;;;1.37;0.70;;;;;;;;;;5024588;28;20279;-67
2022/09/22 14:37:35;;;;;;;2.10;0.90;;;;;;;;;;5020757;28;20196;-67
2022/09/22 14:40:03;;;;;;;3.13;0.90;;;;;;;;;;5029192;28;20198;-67
2022/09/22 14:42:31;;;;;;;2.63;0.73;;;;;;;;;;5028452;28;20271;-68
2022/09/22 14:45:04;;;;;;;2.90;0.80;;;;;;;;;;5028698;28;20195;-68
2022/09/22 14:47:38;;;;;;;1.20;0.87;;;;;;;;;;5028751;28;20252;-68
2022/09/22 14:50:18;;;;;;;2.67;0.80;;;;;;;;;;5023509;28;20199;-68
2022/09/22 14:52:56;;;;;;;1.27;1.00;;;;;;;;;;5027079;28;20708;-68
2022/09/22 14:55:33;;;;;;;3.13;0.60;;;;;;;;;;5026180;28;20229;-67
2022/09/22 14:58:07;;;;;;;1.33;0.50;;;;;;;;;;5027441;28;21016;-67
2022/09/22 15:03:27;;;;;;;2.90;0.50;;;;;;;;;;5012673;28;20191;-67
2022/09/22 15:05:53;;;;;;;1.53;0.43;;;;;;;;;;5028606;28;20203;-68
2022/09/22 15:08:22;;;;;;;1.13;0.50;;;;;;;;;;5015555;28;20199;-68
2022/09/22 15:10:50;;;;;;;1.33;0.50;;;;;;;;;;5021599;28;20759;-68
2022/09/22 15:13:25;;;;;;;1.47;0.80;;;;;;;;;;5019186;28;20242;-67
2022/09/22 15:15:52;;;;;;;2.43;0.67;;;;;;;;;;5006807;28;20244;-67
2022/09/22 15:18:21;;;;;;;3.07;0.90;;;;;;;;;;5004164;28;20729;-66
2022/09/22 15:20:57;;;;;;;1.73;0.70;;;;;;;;;;5022990;28;20195;-66
2022/09/22 15:23:38;;;;;;;2.13;0.70;;;;;;;;;;5020439;28;20184;-66
2022/09/22 15:26:05;;;;;;;1.47;0.67;;;;;;;;;;5023581;28;20183;-67